sensor_id;sensor_type;location;lat;lon;timestamp;temperature;humidity
22850;DHT22;11591;44.792;10.358;2023-02-28T00:00:30;6.00;99.90
22850;DHT22;11591;44.792;10.358;2023-02-28T00:02:55;5.90;99.90
22850;DHT22;11591;44.792;10.358;2023-02-28T00:05:23;5.90;99.90
22850;DHT22;11591;44.792;10.358;2023-02-28T00:07:50;5.90;99.90
22850;DHT22;11591;44.792;10.358;2023-02-28T00:10:20;6.00;99.90
22850;DHT22;11591;44.792;10.358;2023-02-28T00:12:54;6.00;99.90
22850;DHT22;11591;44.792;10.358;2023-02-28T00:15:22;5.90;99.90
22850;DHT22;11591;44.792;10.358;2023-02-28T00:17:49;6.00;99.90
22850;DHT22;11591;44.792;10.358;2023-02-28T00:20:15;6.00;99.90
22850;DHT22;11591;44.792;10.358;2023-02-28T00:22:43;6.00;99.90
22850;DHT22;11591;44.792;10.358;2023-02-28T00:25:11;6.00;99.90
22850;DHT22;11591;44.792;10.358;2023-02-28T00:27:38;5.90;99.90
22850;DHT22;11591;44.792;10.358;2023-02-28T00:30:05;5.90;99.90
22850;DHT22;11591;44.792;10.358;2023-02-28T00:32:32;5.90;99.90
22850;DHT22;11591;44.792;10.358;2023-02-28T00:34:57;5.90;99.90
22850;DHT22;11591;44.792;10.358;2023-02-28T00:37:23;5.80;99.90
22850;DHT22;11591;44.792;10.358;2023-02-28T00:39:49;5.90;99.90
22850;DHT22;11591;44.792;10.358;2023-02-28T00:42:15;5.90;99.90
22850;DHT22;11591;44.792;10.358;2023-02-28T00:44:41;5.90;99.90
22850;DHT22;11591;44.792;10.358;2023-02-28T00:47:07;5.90;99.90
22850;DHT22;11591;44.792;10.358;2023-02-28T00:49:32;5.90;99.90
22850;DHT22;11591;44.792;10.358;2023-02-28T00:51:58;5.90;99.90
22850;DHT22;11591;44.792;10.358;2023-02-28T00:54:25;6.00;99.90
22850;DHT22;11591;44.792;10.358;2023-02-28T00:56:51;5.90;99.90
22850;DHT22;11591;44.792;10.358;2023-02-28T00:59:18;6.00;99.90
22850;DHT22;11591;44.792;10.358;2023-02-28T01:01:45;6.00;99.90
22850;DHT22;11591;44.792;10.358;2023-02-28T01:04:11;6.00;99.90
22850;DHT22;11591;44.792;10.358;2023-02-28T01:06:38;6.10;99.90
22850;DHT22;11591;44.792;10.358;2023-02-28T01:09:05;6.10;99.90
22850;DHT22;11591;44.792;10.358;2023-02-28T01:11:31;6.10;99.90
22850;DHT22;11591;44.792;10.358;2023-02-28T01:13:57;6.10;99.90
22850;DHT22;11591;44.792;10.358;2023-02-28T01:16:24;6.10;99.90
22850;DHT22;11591;44.792;10.358;2023-02-28T01:18:50;6.10;99.90
22850;DHT22;11591;44.792;10.358;2023-02-28T01:21:18;6.10;99.90
22850;DHT22;11591;44.792;10.358;2023-02-28T01:23:45;6.10;99.90
22850;DHT22;11591;44.792;10.358;2023-02-28T01:26:14;6.10;99.90
22850;DHT22;11591;44.792;10.358;2023-02-28T01:28:41;6.10;99.90
22850;DHT22;11591;44.792;10.358;2023-02-28T01:31:08;6.10;99.90
22850;DHT22;11591;44.792;10.358;2023-02-28T01:33:37;6.10;99.90
22850;DHT22;11591;44.792;10.358;2023-02-28T01:36:06;6.10;99.90
22850;DHT22;11591;44.792;10.358;2023-02-28T01:38:33;6.10;99.90
22850;DHT22;11591;44.792;10.358;2023-02-28T01:40:59;6.00;99.90
22850;DHT22;11591;44.792;10.358;2023-02-28T01:43:28;6.00;99.90
22850;DHT22;11591;44.792;10.358;2023-02-28T01:45:56;6.00;99.90
22850;DHT22;11591;44.792;10.358;2023-02-28T01:48:29;6.00;99.90
22850;DHT22;11591;44.792;10.358;2023-02-28T01:51:00;6.00;99.90
22850;DHT22;11591;44.792;10.358;2023-02-28T01:53:33;6.00;99.90
22850;DHT22;11591;44.792;10.358;2023-02-28T01:56:00;6.10;99.90
22850;DHT22;11591;44.792;10.358;2023-02-28T01:58:29;6.10;99.90
22850;DHT22;11591;44.792;10.358;2023-02-28T02:00:55;6.10;99.90
22850;DHT22;11591;44.792;10.358;2023-02-28T02:03:23;6.00;99.90
22850;DHT22;11591;44.792;10.358;2023-02-28T02:05:49;6.10;99.90
22850;DHT22;11591;44.792;10.358;2023-02-28T02:08:22;6.10;99.90
22850;DHT22;11591;44.792;10.358;2023-02-28T02:10:54;6.00;99.90
22850;DHT22;11591;44.792;10.358;2023-02-28T02:16:38;6.10;99.90
22850;DHT22;11591;44.792;10.358;2023-02-28T02:36:04;6.00;99.90
22850;DHT22;11591;44.792;10.358;2023-02-28T02:39:02;6.10;99.90
22850;DHT22;11591;44.792;10.358;2023-02-28T02:41:40;6.00;99.90
22850;DHT22;11591;44.792;10.358;2023-02-28T02:47:03;6.00;99.90
22850;DHT22;11591;44.792;10.358;2023-02-28T02:49:36;6.10;99.90
22850;DHT22;11591;44.792;10.358;2023-02-28T02:52:08;6.10;99.90
22850;DHT22;11591;44.792;10.358;2023-02-28T02:54:38;6.10;99.90
22850;DHT22;11591;44.792;10.358;2023-02-28T02:57:10;6.10;99.90
22850;DHT22;11591;44.792;10.358;2023-02-28T02:59:39;6.10;99.90
22850;DHT22;11591;44.792;10.358;2023-02-28T03:02:08;6.10;99.90
22850;DHT22;11591;44.792;10.358;2023-02-28T03:04:42;6.20;99.90
22850;DHT22;11591;44.792;10.358;2023-02-28T03:07:09;6.10;99.90
22850;DHT22;11591;44.792;10.358;2023-02-28T03:09:36;6.10;99.90
22850;DHT22;11591;44.792;10.358;2023-02-28T03:12:03;6.00;99.90
22850;DHT22;11591;44.792;10.358;2023-02-28T03:15:01;6.00;99.90
22850;DHT22;11591;44.792;10.358;2023-02-28T03:18:01;6.00;99.90
22850;DHT22;11591;44.792;10.358;2023-02-28T03:26:06;6.00;99.90
22850;DHT22;11591;44.792;10.358;2023-02-28T03:31:50;6.00;99.90
22850;DHT22;11591;44.792;10.358;2023-02-28T03:34:24;6.00;99.90
22850;DHT22;11591;44.792;10.358;2023-02-28T03:36:55;6.00;99.90
22850;DHT22;11591;44.792;10.358;2023-02-28T03:39:36;6.00;99.90
22850;DHT22;11591;44.792;10.358;2023-02-28T03:42:11;6.00;99.90
22850;DHT22;11591;44.792;10.358;2023-02-28T03:45:04;5.90;99.90
22850;DHT22;11591;44.792;10.358;2023-02-28T03:47:46;5.90;99.90
22850;DHT22;11591;44.792;10.358;2023-02-28T03:50:21;5.90;99.90
22850;DHT22;11591;44.792;10.358;2023-02-28T03:52:58;5.90;99.90
22850;DHT22;11591;44.792;10.358;2023-02-28T03:55:29;5.90;99.90
22850;DHT22;11591;44.792;10.358;2023-02-28T04:01:15;5.90;99.90
22850;DHT22;11591;44.792;10.358;2023-02-28T04:03:44;5.90;99.90
22850;DHT22;11591;44.792;10.358;2023-02-28T04:06:16;5.90;99.90
22850;DHT22;11591;44.792;10.358;2023-02-28T04:08:43;5.90;99.90
22850;DHT22;11591;44.792;10.358;2023-02-28T04:13:59;5.90;99.90
22850;DHT22;11591;44.792;10.358;2023-02-28T04:16:25;5.90;99.90
22850;DHT22;11591;44.792;10.358;2023-02-28T04:18:50;5.90;99.90
22850;DHT22;11591;44.792;10.358;2023-02-28T04:21:16;5.80;99.90
22850;DHT22;11591;44.792;10.358;2023-02-28T04:23:46;5.90;99.90
22850;DHT22;11591;44.792;10.358;2023-02-28T04:26:12;5.90;99.90
22850;DHT22;11591;44.792;10.358;2023-02-28T04:28:38;5.90;99.90
22850;DHT22;11591;44.792;10.358;2023-02-28T04:31:05;5.80;99.90
22850;DHT22;11591;44.792;10.358;2023-02-28T04:33:31;5.80;99.90
22850;DHT22;11591;44.792;10.358;2023-02-28T04:36:02;5.90;99.90
22850;DHT22;11591;44.792;10.358;2023-02-28T04:38:32;5.90;99.90
22850;DHT22;11591;44.792;10.358;2023-02-28T04:40:59;5.90;99.90
22850;DHT22;11591;44.792;10.358;2023-02-28T04:43:29;5.90;99.90
22850;DHT22;11591;44.792;10.358;2023-02-28T04:45:56;5.90;99.90
22850;DHT22;11591;44.792;10.358;2023-02-28T04:48:23;5.90;99.90
22850;DHT22;11591;44.792;10.358;2023-02-28T04:50:50;5.90;99.90
22850;DHT22;11591;44.792;10.358;2023-02-28T04:53:16;5.90;99.90
22850;DHT22;11591;44.792;10.358;2023-02-28T04:55:42;5.90;99.90
22850;DHT22;11591;44.792;10.358;2023-02-28T04:58:08;5.80;99.90
22850;DHT22;11591;44.792;10.358;2023-02-28T05:00:34;5.80;99.90
22850;DHT22;11591;44.792;10.358;2023-02-28T05:03:00;5.80;99.90
22850;DHT22;11591;44.792;10.358;2023-02-28T05:05:25;5.80;99.90
22850;DHT22;11591;44.792;10.358;2023-02-28T05:07:51;5.80;99.90
22850;DHT22;11591;44.792;10.358;2023-02-28T05:10:19;5.90;99.90
22850;DHT22;11591;44.792;10.358;2023-02-28T05:12:45;5.90;99.90
22850;DHT22;11591;44.792;10.358;2023-02-28T05:15:13;5.90;99.90
22850;DHT22;11591;44.792;10.358;2023-02-28T05:17:39;5.90;99.90
22850;DHT22;11591;44.792;10.358;2023-02-28T05:20:06;5.90;99.90
22850;DHT22;11591;44.792;10.358;2023-02-28T05:22:31;5.80;99.90
22850;DHT22;11591;44.792;10.358;2023-02-28T05:24:58;5.80;99.90
22850;DHT22;11591;44.792;10.358;2023-02-28T05:27:23;5.80;99.90
22850;DHT22;11591;44.792;10.358;2023-02-28T05:29:50;5.90;99.90
22850;DHT22;11591;44.792;10.358;2023-02-28T05:32:16;5.90;99.90
22850;DHT22;11591;44.792;10.358;2023-02-28T05:34:42;5.90;99.90
22850;DHT22;11591;44.792;10.358;2023-02-28T05:37:12;5.80;99.90
22850;DHT22;11591;44.792;10.358;2023-02-28T05:39:38;5.80;99.90
22850;DHT22;11591;44.792;10.358;2023-02-28T05:42:04;5.80;99.90
22850;DHT22;11591;44.792;10.358;2023-02-28T05:44:30;5.80;99.90
22850;DHT22;11591;44.792;10.358;2023-02-28T05:46:56;5.80;99.90
22850;DHT22;11591;44.792;10.358;2023-02-28T05:49:22;5.80;99.90
22850;DHT22;11591;44.792;10.358;2023-02-28T05:51:48;5.80;99.90
22850;DHT22;11591;44.792;10.358;2023-02-28T05:54:13;5.80;99.90
22850;DHT22;11591;44.792;10.358;2023-02-28T05:56:39;5.90;99.90
22850;DHT22;11591;44.792;10.358;2023-02-28T05:59:06;5.90;99.90
22850;DHT22;11591;44.792;10.358;2023-02-28T06:01:38;5.80;99.90
22850;DHT22;11591;44.792;10.358;2023-02-28T06:04:06;5.80;99.90
22850;DHT22;11591;44.792;10.358;2023-02-28T06:06:32;5.80;99.90
22850;DHT22;11591;44.792;10.358;2023-02-28T06:09:00;5.70;99.90
22850;DHT22;11591;44.792;10.358;2023-02-28T06:11:27;5.60;99.90
22850;DHT22;11591;44.792;10.358;2023-02-28T06:13:57;5.60;99.90
22850;DHT22;11591;44.792;10.358;2023-02-28T06:16:26;5.50;99.90
22850;DHT22;11591;44.792;10.358;2023-02-28T06:18:52;5.50;99.90
22850;DHT22;11591;44.792;10.358;2023-02-28T06:21:18;5.40;99.90
22850;DHT22;11591;44.792;10.358;2023-02-28T06:23:44;5.40;99.90
22850;DHT22;11591;44.792;10.358;2023-02-28T06:26:10;5.30;99.90
22850;DHT22;11591;44.792;10.358;2023-02-28T06:28:36;5.30;99.90
22850;DHT22;11591;44.792;10.358;2023-02-28T06:31:10;5.20;99.90
22850;DHT22;11591;44.792;10.358;2023-02-28T06:33:37;5.20;99.90
22850;DHT22;11591;44.792;10.358;2023-02-28T06:36:04;5.20;99.90
22850;DHT22;11591;44.792;10.358;2023-02-28T06:38:31;5.10;99.90
22850;DHT22;11591;44.792;10.358;2023-02-28T06:40:58;5.00;99.90
22850;DHT22;11591;44.792;10.358;2023-02-28T06:43:25;5.10;99.90
22850;DHT22;11591;44.792;10.358;2023-02-28T06:45:55;5.00;99.90
22850;DHT22;11591;44.792;10.358;2023-02-28T06:48:21;5.10;99.90
22850;DHT22;11591;44.792;10.358;2023-02-28T06:50:47;5.10;99.90
22850;DHT22;11591;44.792;10.358;2023-02-28T06:53:12;5.10;99.90
22850;DHT22;11591;44.792;10.358;2023-02-28T06:55:39;5.10;99.90
22850;DHT22;11591;44.792;10.358;2023-02-28T06:58:05;5.10;99.90
22850;DHT22;11591;44.792;10.358;2023-02-28T07:00:43;5.10;99.90
22850;DHT22;11591;44.792;10.358;2023-02-28T07:03:10;5.10;99.90
22850;DHT22;11591;44.792;10.358;2023-02-28T07:05:37;5.20;99.90
22850;DHT22;11591;44.792;10.358;2023-02-28T07:08:04;5.20;99.90
22850;DHT22;11591;44.792;10.358;2023-02-28T07:10:32;5.20;99.90
22850;DHT22;11591;44.792;10.358;2023-02-28T07:12:58;5.30;99.90
22850;DHT22;11591;44.792;10.358;2023-02-28T07:15:24;5.40;99.90
22850;DHT22;11591;44.792;10.358;2023-02-28T07:17:50;5.30;99.90
22850;DHT22;11591;44.792;10.358;2023-02-28T07:20:16;5.40;99.90
22850;DHT22;11591;44.792;10.358;2023-02-28T07:22:43;5.40;99.90
22850;DHT22;11591;44.792;10.358;2023-02-28T07:25:09;5.40;99.90
22850;DHT22;11591;44.792;10.358;2023-02-28T07:27:34;5.40;99.90
22850;DHT22;11591;44.792;10.358;2023-02-28T07:30:00;5.50;99.90
22850;DHT22;11591;44.792;10.358;2023-02-28T07:32:27;5.50;99.90
22850;DHT22;11591;44.792;10.358;2023-02-28T07:34:53;5.50;99.90
22850;DHT22;11591;44.792;10.358;2023-02-28T07:37:20;5.50;99.90
22850;DHT22;11591;44.792;10.358;2023-02-28T07:39:45;5.50;99.90
22850;DHT22;11591;44.792;10.358;2023-02-28T07:42:11;5.50;99.90
22850;DHT22;11591;44.792;10.358;2023-02-28T07:44:41;5.50;99.90
22850;DHT22;11591;44.792;10.358;2023-02-28T07:47:08;5.50;99.90
22850;DHT22;11591;44.792;10.358;2023-02-28T07:49:35;5.60;99.90
22850;DHT22;11591;44.792;10.358;2023-02-28T07:52:03;5.60;99.90
22850;DHT22;11591;44.792;10.358;2023-02-28T07:54:29;5.60;99.90
22850;DHT22;11591;44.792;10.358;2023-02-28T07:56:55;5.60;99.90
22850;DHT22;11591;44.792;10.358;2023-02-28T07:59:20;5.70;99.90
22850;DHT22;11591;44.792;10.358;2023-02-28T08:01:46;5.70;99.90
22850;DHT22;11591;44.792;10.358;2023-02-28T08:04:12;5.70;99.90
22850;DHT22;11591;44.792;10.358;2023-02-28T08:06:38;5.70;99.90
22850;DHT22;11591;44.792;10.358;2023-02-28T08:09:03;5.80;99.90
22850;DHT22;11591;44.792;10.358;2023-02-28T08:11:29;5.80;99.90
22850;DHT22;11591;44.792;10.358;2023-02-28T08:13:55;5.80;99.90
22850;DHT22;11591;44.792;10.358;2023-02-28T08:16:21;5.90;99.90
22850;DHT22;11591;44.792;10.358;2023-02-28T08:18:49;5.90;99.90
22850;DHT22;11591;44.792;10.358;2023-02-28T08:21:15;6.00;99.90
22850;DHT22;11591;44.792;10.358;2023-02-28T08:23:43;6.00;99.90
22850;DHT22;11591;44.792;10.358;2023-02-28T08:26:09;6.00;99.90
22850;DHT22;11591;44.792;10.358;2023-02-28T08:28:35;6.00;99.90
22850;DHT22;11591;44.792;10.358;2023-02-28T08:31:01;6.10;99.90
22850;DHT22;11591;44.792;10.358;2023-02-28T08:33:32;6.10;99.90
22850;DHT22;11591;44.792;10.358;2023-02-28T08:35:58;6.20;99.90
22850;DHT22;11591;44.792;10.358;2023-02-28T08:38:24;6.20;99.90
22850;DHT22;11591;44.792;10.358;2023-02-28T08:40:56;6.20;99.90
22850;DHT22;11591;44.792;10.358;2023-02-28T08:43:22;6.20;99.90
22850;DHT22;11591;44.792;10.358;2023-02-28T08:45:51;6.20;99.90
22850;DHT22;11591;44.792;10.358;2023-02-28T08:48:17;6.20;99.90
22850;DHT22;11591;44.792;10.358;2023-02-28T08:50:43;6.20;99.90
22850;DHT22;11591;44.792;10.358;2023-02-28T08:53:09;6.20;99.90
22850;DHT22;11591;44.792;10.358;2023-02-28T08:55:34;6.30;99.90
22850;DHT22;11591;44.792;10.358;2023-02-28T08:58:00;6.30;99.90
22850;DHT22;11591;44.792;10.358;2023-02-28T09:00:26;6.30;99.90
22850;DHT22;11591;44.792;10.358;2023-02-28T09:02:52;6.30;99.90
22850;DHT22;11591;44.792;10.358;2023-02-28T09:05:20;6.30;99.90
22850;DHT22;11591;44.792;10.358;2023-02-28T09:07:45;6.40;99.90
22850;DHT22;11591;44.792;10.358;2023-02-28T09:10:11;6.40;99.90
22850;DHT22;11591;44.792;10.358;2023-02-28T09:12:37;6.40;99.90
22850;DHT22;11591;44.792;10.358;2023-02-28T09:15:04;6.50;99.90
22850;DHT22;11591;44.792;10.358;2023-02-28T09:17:30;6.50;99.90
22850;DHT22;11591;44.792;10.358;2023-02-28T09:19:55;6.50;99.90
22850;DHT22;11591;44.792;10.358;2023-02-28T09:22:22;6.60;99.90
22850;DHT22;11591;44.792;10.358;2023-02-28T09:24:48;6.60;99.90
22850;DHT22;11591;44.792;10.358;2023-02-28T09:27:14;6.50;99.90
22850;DHT22;11591;44.792;10.358;2023-02-28T09:29:39;6.60;99.90
22850;DHT22;11591;44.792;10.358;2023-02-28T09:32:05;6.70;99.90
22850;DHT22;11591;44.792;10.358;2023-02-28T09:34:31;6.70;99.90
22850;DHT22;11591;44.792;10.358;2023-02-28T09:36:57;6.70;99.90
22850;DHT22;11591;44.792;10.358;2023-02-28T09:39:23;6.80;99.90
22850;DHT22;11591;44.792;10.358;2023-02-28T09:41:51;6.70;99.90
22850;DHT22;11591;44.792;10.358;2023-02-28T09:44:47;6.70;99.90
22850;DHT22;11591;44.792;10.358;2023-02-28T09:47:36;6.80;99.90
22850;DHT22;11591;44.792;10.358;2023-02-28T09:52:49;6.80;99.90
22850;DHT22;11591;44.792;10.358;2023-02-28T09:57:50;6.90;99.90
22850;DHT22;11591;44.792;10.358;2023-02-28T10:05:43;7.10;99.90
22850;DHT22;11591;44.792;10.358;2023-02-28T10:08:21;7.10;99.90
22850;DHT22;11591;44.792;10.358;2023-02-28T10:11:12;7.10;99.90
22850;DHT22;11591;44.792;10.358;2023-02-28T10:19:14;6.60;99.90
22850;DHT22;11591;44.792;10.358;2023-02-28T10:21:48;6.80;99.90
22850;DHT22;11591;44.792;10.358;2023-02-28T10:24:35;6.80;99.90
22850;DHT22;11591;44.792;10.358;2023-02-28T10:27:36;6.80;99.90
22850;DHT22;11591;44.792;10.358;2023-02-28T10:30:03;6.70;99.90
22850;DHT22;11591;44.792;10.358;2023-02-28T10:32:34;6.80;99.90
22850;DHT22;11591;44.792;10.358;2023-02-28T10:37:37;7.10;99.90
22850;DHT22;11591;44.792;10.358;2023-02-28T10:40:26;7.20;99.90
22850;DHT22;11591;44.792;10.358;2023-02-28T10:42:57;7.30;99.90
22850;DHT22;11591;44.792;10.358;2023-02-28T10:45:24;7.30;99.90
22850;DHT22;11591;44.792;10.358;2023-02-28T10:47:56;7.40;99.90
22850;DHT22;11591;44.792;10.358;2023-02-28T11:01:16;7.40;99.90
22850;DHT22;11591;44.792;10.358;2023-02-28T11:03:43;7.50;99.90
22850;DHT22;11591;44.792;10.358;2023-02-28T11:06:21;7.60;99.90
22850;DHT22;11591;44.792;10.358;2023-02-28T11:08:50;7.60;99.90
22850;DHT22;11591;44.792;10.358;2023-02-28T11:11:17;7.40;99.90
22850;DHT22;11591;44.792;10.358;2023-02-28T11:13:45;7.30;99.90
22850;DHT22;11591;44.792;10.358;2023-02-28T11:16:14;7.20;99.90
22850;DHT22;11591;44.792;10.358;2023-02-28T11:21:18;7.50;99.90
22850;DHT22;11591;44.792;10.358;2023-02-28T11:23:45;7.50;99.90
22850;DHT22;11591;44.792;10.358;2023-02-28T11:26:11;7.70;99.90
22850;DHT22;11591;44.792;10.358;2023-02-28T11:28:41;7.80;99.90
22850;DHT22;11591;44.792;10.358;2023-02-28T11:36:22;8.00;99.90
22850;DHT22;11591;44.792;10.358;2023-02-28T11:38:50;8.00;99.90
22850;DHT22;11591;44.792;10.358;2023-02-28T11:46:51;8.00;99.90
22850;DHT22;11591;44.792;10.358;2023-02-28T11:52:20;8.00;99.90
22850;DHT22;11591;44.792;10.358;2023-02-28T12:01:11;8.20;99.90
22850;DHT22;11591;44.792;10.358;2023-02-28T12:04:03;8.20;99.90
22850;DHT22;11591;44.792;10.358;2023-02-28T12:09:54;8.10;99.90
22850;DHT22;11591;44.792;10.358;2023-02-28T12:15:32;8.20;99.90
22850;DHT22;11591;44.792;10.358;2023-02-28T12:20:59;8.20;99.90
22850;DHT22;11591;44.792;10.358;2023-02-28T12:28:51;8.30;99.90
22850;DHT22;11591;44.792;10.358;2023-02-28T12:31:21;8.40;99.90
22850;DHT22;11591;44.792;10.358;2023-02-28T12:34:00;8.40;99.90
22850;DHT22;11591;44.792;10.358;2023-02-28T12:36:27;8.50;99.90
22850;DHT22;11591;44.792;10.358;2023-02-28T12:38:58;8.40;99.90
22850;DHT22;11591;44.792;10.358;2023-02-28T12:44:11;8.30;99.90
22850;DHT22;11591;44.792;10.358;2023-02-28T12:46:48;8.40;99.90
22850;DHT22;11591;44.792;10.358;2023-02-28T12:51:40;8.40;99.90
22850;DHT22;11591;44.792;10.358;2023-02-28T13:10:47;8.80;99.90
22850;DHT22;11591;44.792;10.358;2023-02-28T13:13:28;8.80;99.90
22850;DHT22;11591;44.792;10.358;2023-02-28T13:16:08;8.90;99.90
22850;DHT22;11591;44.792;10.358;2023-02-28T13:18:45;8.90;99.90
22850;DHT22;11591;44.792;10.358;2023-02-28T13:21:27;9.00;99.90
22850;DHT22;11591;44.792;10.358;2023-02-28T13:34:39;9.60;99.90
22850;DHT22;11591;44.792;10.358;2023-02-28T13:39:53;10.10;99.90
22850;DHT22;11591;44.792;10.358;2023-02-28T13:55:50;10.00;99.90
22850;DHT22;11591;44.792;10.358;2023-02-28T14:04:48;10.00;99.90
22850;DHT22;11591;44.792;10.358;2023-02-28T14:07:22;9.90;99.90
22850;DHT22;11591;44.792;10.358;2023-02-28T14:09:56;9.90;99.90
22850;DHT22;11591;44.792;10.358;2023-02-28T14:12:54;9.70;99.90
22850;DHT22;11591;44.792;10.358;2023-02-28T14:15:48;9.60;99.90
22850;DHT22;11591;44.792;10.358;2023-02-28T14:18:21;9.60;99.90
22850;DHT22;11591;44.792;10.358;2023-02-28T14:20:49;9.60;99.90
22850;DHT22;11591;44.792;10.358;2023-02-28T14:27:00;9.60;99.90
22850;DHT22;11591;44.792;10.358;2023-02-28T14:29:00;9.60;99.90
22850;DHT22;11591;44.792;10.358;2023-02-28T14:31:34;9.50;99.90
22850;DHT22;11591;44.792;10.358;2023-02-28T14:36:44;9.60;99.90
22850;DHT22;11591;44.792;10.358;2023-02-28T14:39:16;9.70;99.90
22850;DHT22;11591;44.792;10.358;2023-02-28T14:41:43;9.70;99.90
22850;DHT22;11591;44.792;10.358;2023-02-28T14:44:24;9.70;99.90
22850;DHT22;11591;44.792;10.358;2023-02-28T14:46:53;9.70;99.90
22850;DHT22;11591;44.792;10.358;2023-02-28T14:49:30;9.60;99.90
22850;DHT22;11591;44.792;10.358;2023-02-28T14:52:21;9.60;99.90
22850;DHT22;11591;44.792;10.358;2023-02-28T14:54:56;9.70;99.90
22850;DHT22;11591;44.792;10.358;2023-02-28T14:57:34;10.10;99.90
22850;DHT22;11591;44.792;10.358;2023-02-28T15:02:46;11.10;99.90
22850;DHT22;11591;44.792;10.358;2023-02-28T15:07:38;11.50;99.90
22850;DHT22;11591;44.792;10.358;2023-02-28T15:10:24;11.70;99.90
22850;DHT22;11591;44.792;10.358;2023-02-28T15:13:08;12.10;99.90
22850;DHT22;11591;44.792;10.358;2023-02-28T15:15:48;12.40;99.90
22850;DHT22;11591;44.792;10.358;2023-02-28T15:18:52;12.60;99.90
22850;DHT22;11591;44.792;10.358;2023-02-28T15:21:18;12.80;99.90
22850;DHT22;11591;44.792;10.358;2023-02-28T15:26:45;12.90;99.90
22850;DHT22;11591;44.792;10.358;2023-02-28T15:29:18;12.90;99.90
22850;DHT22;11591;44.792;10.358;2023-02-28T15:31:53;12.70;99.90
22850;DHT22;11591;44.792;10.358;2023-02-28T15:34:38;12.40;99.90
22850;DHT22;11591;44.792;10.358;2023-02-28T15:37:46;12.00;99.90
22850;DHT22;11591;44.792;10.358;2023-02-28T15:40:16;11.60;99.90
22850;DHT22;11591;44.792;10.358;2023-02-28T15:42:43;11.30;99.90
22850;DHT22;11591;44.792;10.358;2023-02-28T15:45:33;11.00;99.90
22850;DHT22;11591;44.792;10.358;2023-02-28T15:48:05;10.90;99.90
22850;DHT22;11591;44.792;10.358;2023-02-28T15:50:37;10.90;99.90
22850;DHT22;11591;44.792;10.358;2023-02-28T15:53:03;10.70;99.90
22850;DHT22;11591;44.792;10.358;2023-02-28T15:55:29;10.40;99.90
22850;DHT22;11591;44.792;10.358;2023-02-28T15:58:01;10.10;99.90
22850;DHT22;11591;44.792;10.358;2023-02-28T16:00:29;10.00;99.90
22850;DHT22;11591;44.792;10.358;2023-02-28T16:02:55;9.90;99.90
22850;DHT22;11591;44.792;10.358;2023-02-28T16:05:26;9.90;99.90
22850;DHT22;11591;44.792;10.358;2023-02-28T16:08:11;10.00;99.90
22850;DHT22;11591;44.792;10.358;2023-02-28T16:10:37;10.10;99.90
22850;DHT22;11591;44.792;10.358;2023-02-28T16:13:03;10.20;99.90
22850;DHT22;11591;44.792;10.358;2023-02-28T16:15:31;10.10;99.90
22850;DHT22;11591;44.792;10.358;2023-02-28T16:17:58;10.20;99.90
22850;DHT22;11591;44.792;10.358;2023-02-28T16:20:29;10.20;99.90
22850;DHT22;11591;44.792;10.358;2023-02-28T16:22:55;10.20;99.90
22850;DHT22;11591;44.792;10.358;2023-02-28T16:25:33;10.10;99.90
22850;DHT22;11591;44.792;10.358;2023-02-28T16:27:59;9.90;99.90
22850;DHT22;11591;44.792;10.358;2023-02-28T16:30:27;9.80;99.90
22850;DHT22;11591;44.792;10.358;2023-02-28T16:32:55;9.70;99.90
22850;DHT22;11591;44.792;10.358;2023-02-28T16:35:21;9.50;99.90
22850;DHT22;11591;44.792;10.358;2023-02-28T16:37:48;9.40;99.90
22850;DHT22;11591;44.792;10.358;2023-02-28T16:40:21;9.20;99.90
22850;DHT22;11591;44.792;10.358;2023-02-28T16:42:49;9.00;99.90
22850;DHT22;11591;44.792;10.358;2023-02-28T16:45:23;8.90;99.90
22850;DHT22;11591;44.792;10.358;2023-02-28T16:47:49;8.80;99.90
22850;DHT22;11591;44.792;10.358;2023-02-28T16:50:21;8.70;99.90
22850;DHT22;11591;44.792;10.358;2023-02-28T16:52:47;8.60;99.90
22850;DHT22;11591;44.792;10.358;2023-02-28T16:55:13;8.50;99.90
22850;DHT22;11591;44.792;10.358;2023-02-28T16:57:39;8.40;99.90
22850;DHT22;11591;44.792;10.358;2023-02-28T17:00:08;8.40;99.90
22850;DHT22;11591;44.792;10.358;2023-02-28T17:02:34;8.40;99.90
22850;DHT22;11591;44.792;10.358;2023-02-28T17:05:00;8.30;99.90
22850;DHT22;11591;44.792;10.358;2023-02-28T17:07:26;8.30;99.90
22850;DHT22;11591;44.792;10.358;2023-02-28T17:09:52;8.20;99.90
22850;DHT22;11591;44.792;10.358;2023-02-28T17:12:17;8.20;99.90
22850;DHT22;11591;44.792;10.358;2023-02-28T17:14:43;8.10;99.90
22850;DHT22;11591;44.792;10.358;2023-02-28T17:17:17;8.00;99.90
22850;DHT22;11591;44.792;10.358;2023-02-28T17:19:43;8.00;99.90
22850;DHT22;11591;44.792;10.358;2023-02-28T17:22:10;8.00;99.90
22850;DHT22;11591;44.792;10.358;2023-02-28T17:24:36;7.90;99.90
22850;DHT22;11591;44.792;10.358;2023-02-28T17:27:02;7.90;99.90
22850;DHT22;11591;44.792;10.358;2023-02-28T17:29:28;7.90;99.90
22850;DHT22;11591;44.792;10.358;2023-02-28T17:31:54;7.90;99.90
22850;DHT22;11591;44.792;10.358;2023-02-28T17:34:21;7.80;99.90
22850;DHT22;11591;44.792;10.358;2023-02-28T17:36:49;7.80;99.90
22850;DHT22;11591;44.792;10.358;2023-02-28T17:39:17;7.80;99.90
22850;DHT22;11591;44.792;10.358;2023-02-28T17:41:55;7.80;99.90
22850;DHT22;11591;44.792;10.358;2023-02-28T17:44:23;7.90;99.90
22850;DHT22;11591;44.792;10.358;2023-02-28T17:46:51;7.90;99.90
22850;DHT22;11591;44.792;10.358;2023-02-28T17:49:18;7.90;99.90
22850;DHT22;11591;44.792;10.358;2023-02-28T17:51:44;7.80;99.90
22850;DHT22;11591;44.792;10.358;2023-02-28T17:54:10;7.80;99.90
22850;DHT22;11591;44.792;10.358;2023-02-28T17:56:36;7.80;99.90
22850;DHT22;11591;44.792;10.358;2023-02-28T17:59:02;7.80;99.90
22850;DHT22;11591;44.792;10.358;2023-02-28T18:01:28;7.80;99.90
22850;DHT22;11591;44.792;10.358;2023-02-28T18:03:54;7.80;99.90
22850;DHT22;11591;44.792;10.358;2023-02-28T18:06:23;7.80;99.90
22850;DHT22;11591;44.792;10.358;2023-02-28T18:08:50;7.70;99.90
22850;DHT22;11591;44.792;10.358;2023-02-28T18:11:20;7.70;99.90
22850;DHT22;11591;44.792;10.358;2023-02-28T18:13:52;7.70;99.90
22850;DHT22;11591;44.792;10.358;2023-02-28T18:16:19;7.70;99.90
22850;DHT22;11591;44.792;10.358;2023-02-28T18:18:47;7.70;99.90
22850;DHT22;11591;44.792;10.358;2023-02-28T18:21:14;7.70;99.90
22850;DHT22;11591;44.792;10.358;2023-02-28T18:23:40;7.70;99.90
22850;DHT22;11591;44.792;10.358;2023-02-28T18:26:18;7.80;99.90
22850;DHT22;11591;44.792;10.358;2023-02-28T18:28:45;7.80;99.90
22850;DHT22;11591;44.792;10.358;2023-02-28T18:31:14;7.80;99.90
22850;DHT22;11591;44.792;10.358;2023-02-28T18:33:47;7.70;99.90
22850;DHT22;11591;44.792;10.358;2023-02-28T18:36:13;7.70;99.90
22850;DHT22;11591;44.792;10.358;2023-02-28T18:38:39;7.70;99.90